createdAt,value
2023-05-21T00:01:45.796Z,70.20
2023-05-21T00:04:49.098Z,70.52
2023-05-21T00:07:53.520Z,71.11
2023-05-21T00:10:56.589Z,72.38
2023-05-21T00:13:59.555Z,71.27
2023-05-21T00:17:02.823Z,71.08
2023-05-21T00:20:07.506Z,70.87
2023-05-21T00:23:10.758Z,71.10
2023-05-21T00:26:14.005Z,70.65
2023-05-21T00:29:18.593Z,70.88
2023-05-21T00:32:21.567Z,70.64
2023-05-21T00:35:24.547Z,70.90
2023-05-21T00:38:28.052Z,70.59
2023-05-21T00:41:35.424Z,70.73
2023-05-21T00:44:39.444Z,70.73
2023-05-21T00:47:44.223Z,70.41
2023-05-21T00:50:47.414Z,71.08
2023-05-21T00:53:53.235Z,70.87
2023-05-21T00:56:56.521Z,71.22
2023-05-21T00:59:59.898Z,71.71
2023-05-21T01:03:05.532Z,71.65
2023-05-21T01:06:10.011Z,71.74
2023-05-21T01:09:13.128Z,72.02
2023-05-21T01:12:17.859Z,72.08
2023-05-21T01:15:21.188Z,72.16
2023-05-21T01:18:25.005Z,72.18
2023-05-21T01:21:30.583Z,72.59
2023-05-21T01:24:34.817Z,72.40
2023-05-21T01:27:38.132Z,72.71
2023-05-21T01:30:42.711Z,72.77
2023-05-21T01:33:50.397Z,72.67
2023-05-21T01:37:01.557Z,73.08
2023-05-21T01:40:23.989Z,73.57
2023-05-21T01:43:29.726Z,73.68
2023-05-21T01:46:36.689Z,74.11
2023-05-21T01:49:40.499Z,74.25
2023-05-21T01:52:54.910Z,75.05
2023-05-21T01:55:59.480Z,75.64
2023-05-21T01:59:02.945Z,75.75
2023-05-21T02:02:06.192Z,76.17
2023-05-21T02:05:09.862Z,77.30
2023-05-21T02:08:15.127Z,77.00
2023-05-21T02:11:20.902Z,77.33
2023-05-21T02:14:25.432Z,76.67
2023-05-21T02:17:35.073Z,77.07
2023-05-21T02:20:38.510Z,77.08
2023-05-21T02:23:42.674Z,77.63
2023-05-21T02:26:47.248Z,78.01
2023-05-21T02:29:50.576Z,78.38
2023-05-21T02:32:53.854Z,78.06
2023-05-21T02:35:57.314Z,78.44
2023-05-21T02:39:02.020Z,78.93
2023-05-21T02:42:05.420Z,78.94
2023-05-21T02:45:12.976Z,78.68
2023-05-21T02:48:18.455Z,79.28
2023-05-21T02:51:21.763Z,79.32
2023-05-21T02:54:25.083Z,79.26
2023-05-21T02:57:28.448Z,79.35
2023-05-21T03:00:31.562Z,79.82
2023-05-21T03:03:36.555Z,79.84
2023-05-21T03:06:40.406Z,80.09
2023-05-21T03:09:43.459Z,80.04
2023-05-21T03:12:47.227Z,81.07
2023-05-21T03:15:56.218Z,80.87
2023-05-21T03:18:59.444Z,80.65
2023-05-21T03:22:04.005Z,81.08
2023-05-21T03:25:11.031Z,81.05
2023-05-21T03:28:14.950Z,81.13
2023-05-21T03:31:26.750Z,80.83
2023-05-21T03:34:47.502Z,80.42
2023-05-21T03:37:52.197Z,80.72
2023-05-21T03:40:55.274Z,80.68
2023-05-21T03:43:58.697Z,80.69
2023-05-21T03:47:06.361Z,80.04
2023-05-21T03:50:12.460Z,79.44
2023-05-21T03:53:15.857Z,79.52
2023-05-21T03:56:19.439Z,79.71
2023-05-21T03:59:23.512Z,79.69
2023-05-21T04:02:28.361Z,79.42
2023-05-21T04:05:31.771Z,78.95
2023-05-21T04:08:35.169Z,77.98
2023-05-21T04:11:38.342Z,78.14
2023-05-21T04:14:41.860Z,78.11
2023-05-21T04:17:47.515Z,77.82
2023-05-21T04:20:50.670Z,78.44
2023-05-21T04:23:54.331Z,77.01
2023-05-21T04:27:17.940Z,77.81
2023-05-21T04:30:22.220Z,78.09
2023-05-21T04:33:25.873Z,77.89
2023-05-21T04:36:29.190Z,76.47
2023-05-21T04:39:33.183Z,77.19
2023-05-21T04:42:36.623Z,76.37
2023-05-21T04:45:40.257Z,75.87
2023-05-21T04:48:45.240Z,76.36
2023-05-21T04:51:49.626Z,75.57
2023-05-21T04:54:54.147Z,74.95
2023-05-21T04:57:57.547Z,74.73
2023-05-21T05:01:03.551Z,74.24
2023-05-21T05:04:07.231Z,74.65
2023-05-21T05:07:10.775Z,74.52
2023-05-21T05:10:14.373Z,73.63
2023-05-21T05:13:17.442Z,74.82
2023-05-21T05:16:25.694Z,74.28
2023-05-21T05:19:35.227Z,74.44
2023-05-21T05:22:38.644Z,73.60
2023-05-21T05:25:41.934Z,73.27
2023-05-21T05:28:46.466Z,72.51
2023-05-21T05:31:50.230Z,72.53
2023-05-21T05:34:53.671Z,72.35
2023-05-21T05:37:57.062Z,71.64
2023-05-21T05:41:00.326Z,70.71
2023-05-21T05:44:04.461Z,69.81
2023-05-21T05:47:11.895Z,69.21
2023-05-21T05:50:16.002Z,69.93
2023-05-21T05:53:19.318Z,66.59
2023-05-21T05:56:22.639Z,66.90
2023-05-21T05:59:25.818Z,65.47
2023-05-21T06:02:33.671Z,64.95
2023-05-21T06:05:36.934Z,64.10
2023-05-21T06:08:40.673Z,65.03
2023-05-21T06:11:44.006Z,64.45
2023-05-21T06:14:49.081Z,63.52
2023-05-21T06:17:52.381Z,62.72
2023-05-21T06:20:55.956Z,63.59
2023-05-21T06:24:00.175Z,61.59
2023-05-21T06:27:05.165Z,61.64
2023-05-21T06:30:09.704Z,62.00
2023-05-21T06:33:15.405Z,63.20
2023-05-21T06:36:18.960Z,62.18
2023-05-21T06:39:25.673Z,60.70
2023-05-21T06:42:28.756Z,61.60
2023-05-21T06:45:51.798Z,59.96
2023-05-21T06:49:14.148Z,59.88
2023-05-21T06:52:18.105Z,58.99
2023-05-21T06:55:21.797Z,59.58
2023-05-21T06:58:37.669Z,61.91
2023-05-21T07:01:42.660Z,62.34
2023-05-21T07:04:46.158Z,62.15
2023-05-21T07:07:49.284Z,59.58
2023-05-21T07:10:52.595Z,58.23
2023-05-21T07:13:58.829Z,60.81
2023-05-21T07:17:02.195Z,62.43
2023-05-21T07:20:10.112Z,59.41
2023-05-21T07:23:15.269Z,59.96
2023-05-21T07:29:36.849Z,58.48
2023-05-21T07:32:40.132Z,59.86
2023-05-21T07:35:43.621Z,57.07
2023-05-21T07:38:46.942Z,58.15
2023-05-21T07:41:50.166Z,60.39
2023-05-21T07:44:53.503Z,58.64
2023-05-21T07:47:57.399Z,56.86
2023-05-21T07:51:01.879Z,57.70
2023-05-21T07:54:05.299Z,55.25
2023-05-21T07:57:11.763Z,57.80
2023-05-21T08:00:44.076Z,59.63
2023-05-21T08:03:48.130Z,59.73
2023-05-21T08:06:51.655Z,55.80
2023-05-21T08:09:54.721Z,53.94
2023-05-21T08:12:58.028Z,56.49
2023-05-21T08:16:01.177Z,56.98
2023-05-21T08:19:04.623Z,51.89
2023-05-21T08:22:08.300Z,55.65
2023-05-21T08:25:13.563Z,55.13
2023-05-21T08:28:16.727Z,54.14
2023-05-21T08:31:19.718Z,57.75
2023-05-21T08:34:23.409Z,55.55
2023-05-21T08:37:37.400Z,55.61
2023-05-21T08:40:55.169Z,54.18
2023-05-21T08:44:02.136Z,57.71
2023-05-21T08:47:08.088Z,53.55
2023-05-21T08:50:14.050Z,51.53
2023-05-21T08:53:27.356Z,52.84
2023-05-21T08:56:36.053Z,51.70
2023-05-21T08:59:44.241Z,50.63
2023-05-21T09:02:56.507Z,54.10
2023-05-21T09:06:01.999Z,52.26
2023-05-21T09:09:37.011Z,51.54
2023-05-21T09:12:42.785Z,52.80
2023-05-21T09:15:47.301Z,50.89
2023-05-21T09:18:51.977Z,50.01
2023-05-21T09:22:03.882Z,52.58
2023-05-21T09:25:10.690Z,53.34
2023-05-21T09:28:15.869Z,50.62
2023-05-21T09:31:19.105Z,51.97
2023-05-21T09:34:25.323Z,49.66
2023-05-21T09:37:28.374Z,51.70
2023-05-21T09:40:31.988Z,51.21
2023-05-21T09:43:36.974Z,53.61
2023-05-21T09:46:41.939Z,53.98
2023-05-21T09:49:45.763Z,50.58
2023-05-21T09:52:50.811Z,50.93
2023-05-21T09:55:58.132Z,51.39
2023-05-21T09:59:04.598Z,50.76
2023-05-21T10:02:22.915Z,50.54
2023-05-21T10:05:31.098Z,50.80
2023-05-21T10:08:39.579Z,48.54
2023-05-21T10:11:45.081Z,51.41
2023-05-21T10:14:54.218Z,48.40
2023-05-21T10:17:59.247Z,49.42
2023-05-21T10:21:07.269Z,49.74
2023-05-21T10:24:11.416Z,49.00
2023-05-21T10:27:14.712Z,52.56
2023-05-21T10:30:18.680Z,45.76
2023-05-21T10:33:24.427Z,47.80
2023-05-21T10:36:33.538Z,46.62
2023-05-21T10:39:39.036Z,47.00
2023-05-21T10:43:23.389Z,44.52
2023-05-21T10:47:11.426Z,43.84
2023-05-21T10:50:35.720Z,45.40
2023-05-21T10:54:11.296Z,44.93
2023-05-21T10:57:29.298Z,42.81
2023-05-21T11:01:00.078Z,42.63
2023-05-21T11:04:04.986Z,42.41
2023-05-21T11:07:08.629Z,42.12
2023-05-21T11:10:40.837Z,40.70
2023-05-21T11:13:51.230Z,40.41
2023-05-21T11:16:55.070Z,41.58
2023-05-21T11:20:05.374Z,40.18
2023-05-21T11:23:11.446Z,41.63
2023-05-21T11:26:19.241Z,40.68
2023-05-21T11:29:33.634Z,41.77
2023-05-21T11:32:41.403Z,40.18
2023-05-21T11:35:50.258Z,41.13
2023-05-21T11:39:10.947Z,37.29
2023-05-21T11:42:39.512Z,37.45
2023-05-21T11:45:47.332Z,38.90
2023-05-21T11:48:52.867Z,38.10
2023-05-21T11:51:56.940Z,38.02
2023-05-21T11:55:00.207Z,39.03
2023-05-21T11:58:03.799Z,39.71
2023-05-21T12:01:07.240Z,38.99
2023-05-21T12:04:13.718Z,39.45
2023-05-21T12:07:19.417Z,36.94
2023-05-21T12:10:24.329Z,36.95
2023-05-21T12:13:28.601Z,36.83
2023-05-21T12:16:32.888Z,37.78
2023-05-21T12:19:38.197Z,36.43
2023-05-21T12:22:45.075Z,36.78
2023-05-21T12:25:48.561Z,37.15
2023-05-21T12:28:56.329Z,39.21
2023-05-21T12:32:01.397Z,38.52
2023-05-21T12:35:04.908Z,37.57
2023-05-21T12:38:09.728Z,38.54
2023-05-21T12:41:12.711Z,37.49
2023-05-21T12:44:15.794Z,38.46
2023-05-21T12:47:22.765Z,37.11
2023-05-21T12:50:26.754Z,36.94
2023-05-21T12:53:44.605Z,38.00
2023-05-21T12:56:47.540Z,36.15
2023-05-21T12:59:51.661Z,38.84
2023-05-21T13:02:57.165Z,37.39
2023-05-21T13:06:01.324Z,38.59
2023-05-21T13:09:04.759Z,38.75
2023-05-21T13:12:08.299Z,36.06
2023-05-21T13:15:11.536Z,39.93
2023-05-21T13:18:16.090Z,40.09
2023-05-21T13:21:19.238Z,36.85
2023-05-21T13:24:22.329Z,37.48
2023-05-21T13:27:25.721Z,38.43
2023-05-21T13:30:28.956Z,37.59
2023-05-21T13:33:32.371Z,36.13
2023-05-21T13:36:36.144Z,37.77
2023-05-21T13:39:39.328Z,36.48
2023-05-21T13:42:43.573Z,37.08
2023-05-21T13:45:49.621Z,38.41
2023-05-21T13:48:53.224Z,39.38
2023-05-21T13:51:58.284Z,37.74
2023-05-21T13:55:01.712Z,39.44
2023-05-21T13:58:04.759Z,37.77
2023-05-21T14:01:08.093Z,39.93
2023-05-21T14:04:12.301Z,38.46
2023-05-21T14:07:15.668Z,38.08
2023-05-21T14:10:18.890Z,37.44
2023-05-21T14:13:22.383Z,38.25
2023-05-21T14:16:27.643Z,37.58
2023-05-21T14:19:30.759Z,40.40
2023-05-21T14:22:34.047Z,39.80
2023-05-21T14:25:37.674Z,39.66
2023-05-21T14:28:41.908Z,39.96
2023-05-21T14:31:46.484Z,40.07
2023-05-21T14:34:49.690Z,40.80
2023-05-21T14:37:54.192Z,43.45
2023-05-21T14:40:57.794Z,42.87
2023-05-21T14:44:01.020Z,43.19
2023-05-21T14:47:04.344Z,43.27
2023-05-21T14:50:09.213Z,41.79
2023-05-21T14:53:12.675Z,41.45
2023-05-21T14:56:15.901Z,41.40
2023-05-21T14:59:19.072Z,40.13
2023-05-21T15:02:22.662Z,40.57
2023-05-21T15:10:08.489Z,39.70
2023-05-21T15:13:11.560Z,40.25
2023-05-21T15:16:15.697Z,40.45
2023-05-21T15:19:20.705Z,41.52
2023-05-21T15:22:23.718Z,39.86
2023-05-21T15:25:26.883Z,39.03
2023-05-21T15:28:29.973Z,39.09
2023-05-21T15:31:33.395Z,40.37
2023-05-21T15:34:36.471Z,41.31
2023-05-21T15:37:43.799Z,40.30
2023-05-21T15:40:47.789Z,41.24
2023-05-21T15:43:50.803Z,40.34
2023-05-21T15:46:55.029Z,41.53
2023-05-21T15:50:00.520Z,42.22
2023-05-21T15:53:04.846Z,44.94
2023-05-21T15:56:10.505Z,43.35
2023-05-21T15:59:14.285Z,43.01
2023-05-21T16:02:17.410Z,42.70
2023-05-21T16:05:20.708Z,44.75
2023-05-21T16:08:23.940Z,44.67
2023-05-21T16:11:27.936Z,45.94
2023-05-21T16:14:31.331Z,47.48
2023-05-21T16:17:34.379Z,50.29
2023-05-21T16:25:19.887Z,49.29
2023-05-21T16:28:24.613Z,48.78
2023-05-21T16:31:27.940Z,49.14
2023-05-21T16:34:31.236Z,47.87
2023-05-21T16:37:34.648Z,48.69
2023-05-21T16:40:38.003Z,49.52
2023-05-21T16:43:41.133Z,48.24
2023-05-21T16:46:44.270Z,46.63
2023-05-21T16:49:47.562Z,47.19
2023-05-21T16:52:50.898Z,47.53
2023-05-21T16:55:54.379Z,47.04
2023-05-21T16:58:57.434Z,47.47
2023-05-21T17:02:00.790Z,47.28
2023-05-21T17:05:04.917Z,47.71
2023-05-21T17:08:10.927Z,48.32
2023-05-21T17:11:14.124Z,48.79
2023-05-21T17:14:33.144Z,49.18
2023-05-21T17:17:37.240Z,49.67
2023-05-21T17:20:40.684Z,49.12
2023-05-21T17:23:46.584Z,49.00
2023-05-21T17:26:49.715Z,50.30
2023-05-21T17:29:53.114Z,50.36
2023-05-21T17:32:56.249Z,50.23
2023-05-21T17:35:59.375Z,50.83
2023-05-21T17:39:02.456Z,51.62
2023-05-21T17:42:06.044Z,51.39
2023-05-21T17:45:09.798Z,52.14
2023-05-21T17:48:13.044Z,52.07
2023-05-21T17:51:16.573Z,52.51
2023-05-21T17:54:19.953Z,53.46
2023-05-21T17:57:23.476Z,55.42
2023-05-21T18:00:26.753Z,55.53
2023-05-21T18:03:30.390Z,56.02
2023-05-21T18:06:33.717Z,56.03
2023-05-21T18:09:36.869Z,56.78
2023-05-21T18:12:39.866Z,57.54
2023-05-21T18:15:43.137Z,57.48
2023-05-21T18:18:46.725Z,57.68
2023-05-21T18:21:49.906Z,58.12
2023-05-21T18:24:52.752Z,57.24
2023-05-21T18:27:56.494Z,58.10
2023-05-21T18:31:06.471Z,57.72
2023-05-21T18:34:09.842Z,57.71
2023-05-21T18:37:13.291Z,58.52
2023-05-21T18:40:18.263Z,58.62
2023-05-21T18:43:22.040Z,58.20
2023-05-21T18:46:25.625Z,58.54
2023-05-21T18:49:33.983Z,58.89
2023-05-21T18:52:37.180Z,59.23
2023-05-21T18:55:40.384Z,59.33
2023-05-21T18:58:44.073Z,59.62
2023-05-21T19:01:47.391Z,59.64
2023-05-21T19:04:50.685Z,59.75
2023-05-21T19:07:53.794Z,59.74
2023-05-21T19:10:57.488Z,60.54
2023-05-21T19:14:01.616Z,61.21
2023-05-21T19:17:05.213Z,61.57
2023-05-21T19:20:09.541Z,61.39
2023-05-21T19:23:12.924Z,60.93
2023-05-21T19:26:17.056Z,61.58
2023-05-21T19:29:21.685Z,61.78
2023-05-21T19:32:25.624Z,61.67
2023-05-21T19:35:32.696Z,61.99
2023-05-21T19:38:36.274Z,62.11
2023-05-21T19:41:40.635Z,62.19
2023-05-21T19:44:44.148Z,62.40
2023-05-21T19:47:47.443Z,62.25
2023-05-21T19:50:51.359Z,62.74
2023-05-21T19:53:54.514Z,62.97
2023-05-21T19:56:58.111Z,63.09
2023-05-21T20:00:01.655Z,63.62
2023-05-21T20:03:07.170Z,63.39
2023-05-21T20:06:13.207Z,63.84
2023-05-21T20:09:18.229Z,64.40
2023-05-21T20:12:21.923Z,63.72
2023-05-21T20:18:42.818Z,63.99
2023-05-21T20:21:45.894Z,64.06
2023-05-21T20:24:48.978Z,64.25
2023-05-21T20:27:52.127Z,64.12
2023-05-21T20:31:02.452Z,63.81
2023-05-21T20:34:07.892Z,63.61
2023-05-21T20:37:11.693Z,64.15
2023-05-21T20:40:15.076Z,64.35
2023-05-21T20:43:21.906Z,65.34
2023-05-21T20:46:25.918Z,64.08
2023-05-21T20:49:29.086Z,64.81
2023-05-21T20:52:32.423Z,65.02
2023-05-21T20:55:35.928Z,64.56
2023-05-21T20:58:40.117Z,65.81
2023-05-21T21:01:43.330Z,65.15
2023-05-21T21:04:50.803Z,64.31
2023-05-21T21:07:55.876Z,64.61
2023-05-21T21:10:59.333Z,64.51
2023-05-21T21:14:03.006Z,64.38
2023-05-21T21:17:06.221Z,63.65
2023-05-21T21:20:10.916Z,65.79
2023-05-21T21:23:13.961Z,66.16
2023-05-21T21:26:17.816Z,64.67
2023-05-21T21:29:21.122Z,65.72
2023-05-21T21:32:26.291Z,65.87
2023-05-21T21:35:29.613Z,65.25
2023-05-21T21:38:32.722Z,66.54
2023-05-21T21:41:35.977Z,65.67
2023-05-21T21:44:39.588Z,66.75
2023-05-21T21:47:42.741Z,67.80
2023-05-21T21:50:46.426Z,68.01
2023-05-21T21:53:49.810Z,67.74
2023-05-21T21:56:53.016Z,67.99
2023-05-21T21:59:56.291Z,67.80
2023-05-21T22:02:59.769Z,68.77
2023-05-21T22:06:03.081Z,68.84
2023-05-21T22:09:07.731Z,68.38
2023-05-21T22:12:12.173Z,69.33
2023-05-21T22:15:20.510Z,69.05
2023-05-21T22:18:38.748Z,69.09
2023-05-21T22:21:46.446Z,69.71
2023-05-21T22:24:51.290Z,70.38
2023-05-21T22:27:54.871Z,70.50
2023-05-21T22:30:59.155Z,69.79
2023-05-21T22:34:02.264Z,70.37
2023-05-21T22:37:06.386Z,70.29
2023-05-21T22:40:10.742Z,70.44
2023-05-21T22:43:14.481Z,70.24
2023-05-21T22:46:17.885Z,70.73
2023-05-21T22:49:20.910Z,70.14
2023-05-21T22:52:24.464Z,70.83
2023-05-21T22:55:27.728Z,71.09
2023-05-21T22:58:32.665Z,70.95
2023-05-21T23:01:38.259Z,71.37
2023-05-21T23:04:44.809Z,70.89
2023-05-21T23:07:48.004Z,71.10
2023-05-21T23:10:51.008Z,71.62
2023-05-21T23:13:54.068Z,73.03
2023-05-21T23:17:02.403Z,72.46
2023-05-21T23:20:07.560Z,73.27
2023-05-21T23:23:11.681Z,73.01
2023-05-21T23:26:14.919Z,72.43
2023-05-21T23:29:18.392Z,73.45
2023-05-21T23:32:21.624Z,74.06
2023-05-21T23:35:24.755Z,73.61
2023-05-21T23:38:28.095Z,74.93
2023-05-21T23:41:31.495Z,73.90
2023-05-21T23:44:34.507Z,73.71
2023-05-21T23:47:37.708Z,75.04
2023-05-21T23:50:40.923Z,75.78
2023-05-21T23:53:44.172Z,74.78
2023-05-21T23:56:47.217Z,75.22
2023-05-21T23:59:50.155Z,76.12
